LRTC

Details ICAO LRTC (TCE)
Name CATALOI
Region Romania
Timezone Europe/Bucharest (UTC+2.0)
Plans Departing 11
Arriving 5
Stats Elevation 200 ft / 61 m (AMSL)
Location 45.062486° 28.714312°
Runways 1
Magnetic Variation 6.089° E
Sunrise 2017-12-16 05:38:50 UTC / 2017-12-16 07:38:50 Local
Sunset 2017-12-16 14:25:24 UTC / 2017-12-16 16:25:24 Local
Advertisement - Login to hide

Runways

ID Width Length Bearing (true) Bearing (mag) Surface Threshold Offset Overrun Length
16 98 ft / 30 m 6,522 ft / 1,988 m 167.36° 161.27° Concrete 0 ft / 0 m 0 ft / 0 m
34 98 ft / 30 m 6,522 ft / 1,988 m 347.36° 341.27° Concrete 0 ft / 0 m 0 ft / 0 m

Map

Weather


0- 5 10 15 20 25 30 35+ Temperature / ° C

Clouds and Precipitation
Forecast for 2017-12-16 00:00 UTC. Updated an hour ago

Ground ~20,000 ft ~40,000 ft Winds

METAR

LRTC 160000Z AUTO 15005KT 110V200 9999 R34/2000 SCT240/// 08/07 Q1005

TAF

Not found

Frequencies

Tower 120.30 MHz TULCEA TWR
Approach 120.30 MHz TULCEA APP
Warning: Do not use this data for real-world aviation or navigation. No guarantee of current accuracy is given.